createdAt,value
2018-11-28T00:01:45.265Z,21.23
2018-11-28T00:03:48.850Z,20.30
2018-11-28T00:05:54.605Z,19.80
2018-11-28T00:07:58.348Z,20.50
2018-11-28T00:10:01.961Z,22.20
2018-11-28T00:12:05.669Z,20.37
2018-11-28T00:14:09.213Z,20.43
2018-11-28T00:16:12.729Z,20.63
2018-11-28T00:18:16.377Z,19.47
2018-11-28T00:20:21.175Z,20.30
2018-11-28T00:22:24.710Z,20.83
2018-11-28T00:24:28.241Z,20.00
2018-11-28T00:26:31.834Z,20.37
2018-11-28T00:28:35.485Z,20.27
2018-11-28T00:30:39.050Z,20.23
2018-11-28T00:32:42.931Z,21.00
2018-11-28T00:34:46.654Z,19.70
2018-11-28T00:36:50.162Z,20.10
2018-11-28T00:38:53.740Z,19.83
2018-11-28T00:40:57.271Z,19.70
2018-11-28T00:43:00.773Z,19.13
2018-11-28T00:45:05.444Z,20.73
2018-11-28T00:47:08.977Z,19.43
2018-11-28T00:49:12.529Z,20.57
2018-11-28T00:51:16.088Z,20.00
2018-11-28T00:53:19.580Z,20.63
2018-11-28T00:55:23.149Z,19.20
2018-11-28T00:57:26.714Z,19.43
2018-11-28T00:59:30.242Z,19.37
2018-11-28T01:01:33.777Z,20.80
2018-11-28T01:03:37.299Z,18.90
2018-11-28T01:05:40.798Z,18.63
2018-11-28T01:07:45.153Z,19.53
2018-11-28T01:09:48.823Z,19.70
2018-11-28T01:11:52.460Z,20.10
2018-11-28T01:13:56.090Z,19.73
2018-11-28T01:16:00.121Z,19.23
2018-11-28T01:18:03.617Z,20.40
2018-11-28T01:20:10.911Z,20.00
2018-11-28T01:22:14.411Z,18.87
2018-11-28T01:24:17.965Z,20.03
2018-11-28T01:26:21.454Z,19.80
2018-11-28T01:28:24.942Z,20.17
2018-11-28T01:30:35.138Z,19.43
2018-11-28T01:32:38.972Z,20.27
2018-11-28T01:34:42.494Z,19.80
2018-11-28T01:36:46.021Z,19.57
2018-11-28T01:38:49.568Z,19.37
2018-11-28T01:40:53.194Z,20.37
2018-11-28T01:42:56.687Z,19.80
2018-11-28T01:45:00.260Z,20.53
2018-11-28T01:47:03.797Z,20.37
2018-11-28T01:49:07.401Z,18.97
2018-11-28T01:51:10.993Z,19.30
2018-11-28T01:53:14.498Z,20.73
2018-11-28T01:55:19.278Z,20.93
2018-11-28T01:57:23.021Z,20.27
2018-11-28T01:59:26.539Z,20.10
2018-11-28T02:01:30.080Z,21.07
2018-11-28T02:03:33.578Z,20.90
2018-11-28T02:05:37.149Z,21.37
2018-11-28T02:07:40.731Z,22.30
2018-11-28T02:09:44.268Z,21.27
2018-11-28T02:11:48.030Z,21.30
2018-11-28T02:13:51.649Z,19.03
2018-11-28T02:15:55.218Z,21.43
2018-11-28T02:17:58.886Z,19.67
2018-11-28T02:20:02.574Z,21.07
2018-11-28T02:22:06.145Z,22.07
2018-11-28T02:24:09.645Z,20.43
2018-11-28T02:26:13.351Z,20.97
2018-11-28T02:28:16.921Z,19.73
2018-11-28T02:30:20.940Z,21.17
2018-11-28T02:32:24.532Z,19.30
2018-11-28T02:34:28.066Z,19.80
2018-11-28T02:36:31.734Z,20.47
2018-11-28T02:38:35.281Z,19.87
2018-11-28T02:40:38.997Z,20.37
2018-11-28T02:42:42.610Z,18.97
2018-11-28T02:44:46.256Z,18.53
2018-11-28T02:46:49.825Z,19.63
2018-11-28T02:48:53.379Z,19.83
2018-11-28T02:50:56.895Z,20.53
2018-11-28T02:53:00.443Z,21.10
2018-11-28T02:55:04.109Z,21.40
2018-11-28T02:57:07.645Z,19.17
2018-11-28T02:59:11.170Z,21.03
2018-11-28T03:01:14.882Z,21.73
2018-11-28T03:03:18.510Z,20.20
2018-11-28T03:05:22.190Z,19.73
2018-11-28T03:07:25.678Z,20.90
2018-11-28T03:09:29.388Z,20.97
2018-11-28T03:11:32.911Z,20.73
2018-11-28T03:13:36.683Z,20.33
2018-11-28T03:15:42.782Z,20.63
2018-11-28T03:17:46.297Z,20.90
2018-11-28T03:19:49.809Z,20.50
2018-11-28T03:21:53.326Z,21.33
2018-11-28T03:23:57.018Z,23.50
2018-11-28T03:26:00.590Z,20.77
2018-11-28T03:28:04.173Z,21.23
2018-11-28T03:30:14.724Z,20.50
2018-11-28T03:32:18.222Z,21.10
2018-11-28T03:34:23.261Z,21.87
2018-11-28T03:36:26.800Z,22.10
2018-11-28T03:38:30.345Z,21.97
2018-11-28T03:40:33.918Z,20.43
2018-11-28T03:42:37.506Z,22.07
2018-11-28T03:44:41.291Z,20.63
2018-11-28T03:46:44.943Z,20.50
2018-11-28T03:48:48.510Z,20.97
2018-11-28T03:50:52.121Z,20.33
2018-11-28T03:52:55.855Z,20.47
2018-11-28T03:54:59.391Z,20.50
2018-11-28T03:57:02.926Z,19.50
2018-11-28T03:59:06.672Z,19.47
2018-11-28T04:01:10.145Z,19.20
2018-11-28T04:03:13.637Z,18.77
2018-11-28T04:05:17.257Z,19.73
2018-11-28T04:07:20.897Z,19.07
2018-11-28T04:09:24.430Z,18.87
2018-11-28T04:11:27.950Z,19.37
2018-11-28T04:13:31.752Z,18.83
2018-11-28T04:15:35.401Z,18.53
2018-11-28T04:17:39.034Z,18.70
2018-11-28T04:19:42.614Z,18.53
2018-11-28T04:21:46.211Z,17.50
2018-11-28T04:23:50.057Z,18.63
2018-11-28T04:25:53.583Z,18.73
2018-11-28T04:27:57.106Z,19.47
2018-11-28T04:30:00.595Z,18.17
2018-11-28T04:32:04.131Z,18.37
2018-11-28T04:34:07.713Z,18.93
2018-11-28T04:36:11.222Z,18.63
2018-11-28T04:38:14.747Z,18.37
2018-11-28T04:40:19.465Z,17.87
2018-11-28T04:42:22.969Z,17.20
2018-11-28T04:44:26.532Z,17.50
2018-11-28T04:46:30.085Z,18.03
2018-11-28T04:48:33.641Z,16.23
2018-11-28T04:50:37.201Z,17.00
2018-11-28T04:52:40.778Z,19.57
2018-11-28T04:54:45.564Z,18.53
2018-11-28T04:56:49.089Z,18.60
2018-11-28T04:58:52.709Z,17.80
2018-11-28T05:00:56.329Z,17.87
2018-11-28T05:02:59.882Z,17.33
2018-11-28T05:05:03.614Z,18.07
2018-11-28T05:07:37.981Z,19.00
2018-11-28T05:09:41.599Z,20.20
2018-11-28T05:11:45.122Z,20.20
2018-11-28T05:13:48.658Z,17.50
2018-11-28T05:15:52.198Z,19.67
2018-11-28T05:17:55.756Z,17.90
2018-11-28T05:19:59.261Z,19.47
2018-11-28T05:22:02.791Z,19.50
2018-11-28T05:24:06.434Z,19.27
2018-11-28T05:26:10.074Z,19.70
2018-11-28T05:28:13.705Z,18.37
2018-11-28T05:30:18.524Z,19.63
2018-11-28T05:32:22.074Z,19.87
2018-11-28T05:34:25.651Z,19.77
2018-11-28T05:36:29.439Z,20.03
2018-11-28T05:38:33.014Z,20.80
2018-11-28T05:40:36.539Z,18.47
2018-11-28T05:42:40.165Z,18.70
2018-11-28T05:44:43.702Z,19.67
2018-11-28T05:46:47.350Z,20.17
2018-11-28T05:48:51.063Z,19.57
2018-11-28T05:50:54.704Z,18.33
2018-11-28T05:52:58.374Z,19.70
2018-11-28T05:55:01.921Z,18.77
2018-11-28T05:57:06.209Z,19.10
2018-11-28T05:59:09.736Z,18.90
2018-11-28T06:01:13.269Z,19.20
2018-11-28T06:03:16.776Z,18.73
2018-11-28T06:05:20.353Z,19.00
2018-11-28T06:07:23.876Z,19.17
2018-11-28T06:09:27.559Z,19.00
2018-11-28T06:11:31.158Z,17.60
2018-11-28T06:13:35.091Z,19.37
2018-11-28T06:15:38.661Z,19.43
2018-11-28T06:17:42.162Z,18.30
2018-11-28T06:19:45.830Z,16.97
2018-11-28T06:21:50.965Z,18.63
2018-11-28T06:23:55.858Z,18.33
2018-11-28T06:26:00.632Z,18.50
2018-11-28T06:28:04.161Z,18.67
2018-11-28T06:30:10.267Z,17.07
2018-11-28T06:32:13.890Z,17.53
2018-11-28T06:34:17.434Z,17.63
2018-11-28T06:36:21.193Z,17.97
2018-11-28T06:38:24.754Z,17.17
2018-11-28T06:40:28.265Z,16.80
2018-11-28T06:42:33.626Z,17.70
2018-11-28T06:44:37.555Z,17.33
2018-11-28T06:46:41.288Z,18.20
2018-11-28T06:48:44.907Z,18.83
2018-11-28T06:50:48.593Z,17.27
2018-11-28T06:52:52.321Z,16.27
2018-11-28T06:54:55.858Z,15.93
2018-11-28T06:56:59.570Z,17.00
2018-11-28T06:59:03.166Z,16.50
2018-11-28T07:01:07.340Z,17.20
2018-11-28T07:03:10.888Z,17.90
2018-11-28T07:05:14.558Z,17.03
2018-11-28T07:07:18.070Z,17.73
2018-11-28T07:09:21.750Z,18.50
2018-11-28T07:11:25.277Z,16.73
2018-11-28T07:13:35.317Z,20.20
2018-11-28T07:15:38.821Z,20.93
2018-11-28T07:17:42.822Z,21.50
2018-11-28T07:19:46.359Z,22.23
2018-11-28T07:21:49.890Z,21.80
2018-11-28T07:23:53.384Z,21.07
2018-11-28T07:25:57.137Z,20.23
2018-11-28T07:28:00.624Z,20.43
2018-11-28T07:30:05.392Z,19.37
2018-11-28T07:32:08.917Z,19.43
2018-11-28T07:34:12.450Z,20.47
2018-11-28T07:36:15.960Z,17.63
2018-11-28T07:38:19.638Z,19.33
2018-11-28T07:40:26.871Z,19.00
2018-11-28T07:42:30.485Z,19.77
2018-11-28T07:44:34.026Z,18.80
2018-11-28T07:46:37.514Z,19.40
2018-11-28T07:48:41.118Z,19.13
2018-11-28T07:50:44.677Z,21.33
2018-11-28T07:52:48.202Z,19.70
2018-11-28T07:54:51.735Z,20.40
2018-11-28T07:56:55.252Z,18.90
2018-11-28T07:58:58.798Z,20.87
2018-11-28T08:01:02.638Z,20.07
2018-11-28T08:03:07.873Z,20.60
2018-11-28T08:05:12.410Z,21.10
2018-11-28T08:07:16.084Z,21.27
2018-11-28T08:09:19.700Z,22.03
2018-11-28T08:11:23.164Z,22.33
2018-11-28T08:13:26.878Z,22.23
2018-11-28T08:15:30.385Z,20.57
2018-11-28T08:17:33.886Z,21.73
2018-11-28T08:19:37.957Z,20.83
2018-11-28T08:21:41.499Z,20.93
2018-11-28T08:23:45.221Z,20.43
2018-11-28T08:25:48.839Z,22.73
2018-11-28T08:27:52.567Z,21.27
2018-11-28T08:29:56.042Z,22.63
2018-11-28T08:31:59.563Z,22.03
2018-11-28T08:34:03.078Z,22.23
2018-11-28T08:36:06.996Z,22.00
2018-11-28T08:38:10.552Z,21.30
2018-11-28T08:40:16.105Z,21.77
2018-11-28T08:42:19.729Z,21.00
2018-11-28T08:44:23.193Z,21.47
2018-11-28T08:46:26.991Z,20.47
2018-11-28T08:48:30.597Z,20.40
2018-11-28T08:50:35.510Z,21.13
2018-11-28T08:52:39.118Z,20.57
2018-11-28T08:54:42.675Z,19.47
2018-11-28T08:56:46.276Z,20.53
2018-11-28T08:58:50.011Z,21.80
2018-11-28T09:00:53.605Z,20.37
2018-11-28T09:02:57.959Z,20.07
2018-11-28T09:05:01.615Z,21.13
2018-11-28T09:07:05.590Z,22.37
2018-11-28T09:09:09.222Z,21.50
2018-11-28T09:11:12.780Z,20.73
2018-11-28T09:13:16.245Z,20.07
2018-11-28T09:15:22.052Z,20.03
2018-11-28T09:17:25.530Z,21.20
2018-11-28T09:19:29.343Z,20.83
2018-11-28T09:21:33.124Z,20.20
2018-11-28T09:23:36.686Z,20.53
2018-11-28T09:25:40.304Z,20.87
2018-11-28T09:27:44.817Z,20.60
2018-11-28T09:29:48.300Z,20.70
2018-11-28T09:31:51.870Z,20.23
2018-11-28T09:33:55.431Z,20.23
2018-11-28T09:35:58.950Z,19.40
2018-11-28T09:38:02.540Z,19.07
2018-11-28T09:40:10.222Z,18.53
2018-11-28T09:42:13.833Z,19.57
2018-11-28T09:44:17.398Z,19.13
2018-11-28T09:46:21.482Z,18.73
2018-11-28T09:48:25.206Z,19.40
2018-11-28T09:50:28.772Z,20.50
2018-11-28T09:52:32.314Z,20.57
2018-11-28T09:54:36.025Z,18.20
2018-11-28T09:56:39.894Z,19.80
2018-11-28T09:58:43.582Z,19.67
2018-11-28T10:00:47.135Z,19.20
2018-11-28T10:02:51.840Z,20.13
2018-11-28T10:04:55.413Z,19.57
2018-11-28T10:06:58.951Z,19.77
2018-11-28T10:09:02.622Z,18.17
2018-11-28T10:11:06.486Z,22.57
2018-11-28T10:13:10.239Z,21.80
2018-11-28T10:15:20.213Z,19.57
2018-11-28T10:17:23.710Z,18.80
2018-11-28T10:19:27.259Z,18.77
2018-11-28T10:21:30.962Z,18.80
2018-11-28T10:23:34.550Z,18.87
2018-11-28T10:25:38.069Z,21.73
2018-11-28T10:27:41.819Z,21.37
2018-11-28T10:29:45.322Z,20.37
2018-11-28T10:31:48.815Z,21.70
2018-11-28T10:33:52.457Z,19.57
2018-11-28T10:35:55.987Z,18.47
2018-11-28T10:37:59.569Z,18.63
2018-11-28T10:40:03.085Z,19.17
2018-11-28T10:42:06.598Z,19.80
2018-11-28T10:44:10.241Z,18.83
2018-11-28T10:46:13.777Z,18.47
2018-11-28T10:48:17.321Z,18.57
2018-11-28T10:50:20.862Z,19.17
2018-11-28T10:52:24.442Z,18.87
2018-11-28T10:54:30.078Z,19.60
2018-11-28T10:56:33.651Z,19.53
2018-11-28T10:58:37.232Z,18.67
2018-11-28T11:00:46.108Z,18.70
2018-11-28T11:02:55.040Z,18.20
2018-11-28T11:05:03.949Z,18.43
2018-11-28T11:07:13.112Z,18.27
2018-11-28T11:09:22.102Z,20.40
2018-11-28T11:11:26.569Z,19.63
2018-11-28T11:13:35.604Z,18.00
2018-11-28T11:15:39.300Z,18.23
2018-11-28T11:17:42.818Z,18.67
2018-11-28T11:19:46.349Z,17.47
2018-11-28T11:21:51.779Z,18.40
2018-11-28T11:23:55.362Z,19.07
2018-11-28T11:25:59.020Z,17.97
2018-11-28T11:28:02.783Z,18.60
2018-11-28T11:30:09.227Z,18.13
2018-11-28T11:32:12.974Z,17.00
2018-11-28T11:34:16.511Z,18.10
2018-11-28T11:36:20.195Z,17.43
2018-11-28T11:38:25.926Z,17.53
2018-11-28T11:40:29.636Z,17.63
2018-11-28T11:42:33.229Z,18.23
2018-11-28T11:44:36.730Z,18.07
2018-11-28T11:46:40.365Z,17.27
2018-11-28T11:48:43.923Z,18.20
2018-11-28T11:50:47.534Z,17.53
2018-11-28T11:52:51.087Z,17.43
2018-11-28T11:54:54.598Z,18.30
2018-11-28T11:56:58.217Z,19.53
2018-11-28T11:59:01.775Z,18.50
2018-11-28T12:01:06.283Z,18.40
2018-11-28T12:03:12.994Z,17.33
2018-11-28T12:05:16.573Z,18.73
2018-11-28T12:07:20.099Z,19.93
2018-11-28T12:09:23.637Z,20.37
2018-11-28T12:11:27.261Z,20.33
2018-11-28T12:13:31.014Z,21.07
2018-11-28T12:15:35.686Z,20.20
2018-11-28T12:17:38.090Z,20.03
2018-11-28T12:19:41.626Z,19.70
2018-11-28T12:21:45.166Z,18.73
2018-11-28T12:23:48.747Z,20.47
2018-11-28T12:25:52.322Z,19.50
2018-11-28T12:27:55.851Z,18.33
2018-11-28T12:29:59.489Z,19.00
2018-11-28T12:32:03.034Z,21.37
2018-11-28T12:34:06.732Z,21.17
2018-11-28T12:36:10.283Z,20.27
2018-11-28T12:38:13.860Z,19.53
2018-11-28T12:40:17.934Z,19.23
2018-11-28T12:42:21.460Z,18.93
2018-11-28T12:44:25.039Z,19.93
2018-11-28T12:46:28.634Z,19.13
2018-11-28T12:48:32.279Z,20.27
2018-11-28T12:50:35.917Z,20.33
2018-11-28T12:52:39.524Z,22.13
2018-11-28T12:54:43.060Z,21.23
2018-11-28T12:56:46.802Z,20.90
2018-11-28T12:58:50.306Z,23.13
2018-11-28T13:00:53.911Z,22.03
2018-11-28T13:02:57.577Z,20.80
2018-11-28T13:05:01.193Z,22.40
2018-11-28T13:07:04.779Z,22.67
2018-11-28T13:09:08.382Z,24.40
2018-11-28T13:11:11.918Z,22.50
2018-11-28T13:13:15.564Z,25.20
2018-11-28T13:15:20.081Z,20.70
2018-11-28T13:17:23.611Z,19.53
2018-11-28T13:19:27.302Z,20.10
2018-11-28T13:21:31.126Z,19.70
2018-11-28T13:23:34.338Z,19.50
2018-11-28T13:25:37.911Z,19.80
2018-11-28T13:27:41.610Z,19.23
2018-11-28T13:29:45.126Z,21.23
2018-11-28T13:31:48.673Z,20.00
2018-11-28T13:33:52.423Z,19.87
2018-11-28T13:35:55.974Z,19.70
2018-11-28T13:38:02.281Z,20.73
2018-11-28T13:40:08.155Z,21.93
2018-11-28T13:42:11.781Z,20.37
2018-11-28T13:44:15.366Z,20.30
2018-11-28T13:46:18.886Z,20.77
2018-11-28T13:48:22.388Z,20.10
2018-11-28T13:50:25.936Z,20.57
2018-11-28T13:52:29.510Z,20.77
2018-11-28T13:54:33.077Z,20.77
2018-11-28T13:58:40.109Z,20.57
2018-11-28T14:00:43.669Z,21.63
2018-11-28T14:02:47.206Z,20.60
2018-11-28T14:04:50.753Z,19.90
2018-11-28T14:06:54.263Z,22.57
2018-11-28T14:08:58.058Z,21.87
2018-11-28T14:11:01.665Z,20.83
2018-11-28T14:13:05.521Z,22.70
2018-11-28T14:15:17.509Z,20.03
2018-11-28T14:17:21.070Z,28.00
2018-11-28T14:19:24.703Z,24.23
2018-11-28T14:21:28.369Z,22.53
2018-11-28T14:23:31.912Z,21.13
2018-11-28T14:25:35.638Z,23.80
2018-11-28T14:27:39.258Z,25.07
2018-11-28T14:29:42.766Z,20.80
2018-11-28T14:31:46.430Z,22.77
2018-11-28T14:33:50.934Z,23.43
2018-11-28T14:35:53.518Z,23.23
2018-11-28T14:37:57.130Z,22.47
2018-11-28T14:40:00.659Z,23.53
2018-11-28T14:42:04.254Z,25.73
2018-11-28T14:44:07.909Z,24.77
2018-11-28T14:46:11.493Z,22.23
2018-11-28T14:48:15.258Z,24.70
2018-11-28T14:50:22.853Z,23.70
2018-11-28T14:52:26.426Z,25.37
2018-11-28T14:54:29.933Z,27.63
2018-11-28T14:56:33.443Z,25.40
2018-11-28T14:58:37.255Z,26.10
2018-11-28T15:00:41.328Z,24.70
2018-11-28T15:02:45.490Z,26.73
2018-11-28T15:04:49.014Z,25.30
2018-11-28T15:06:54.926Z,24.10
2018-11-28T15:09:03.885Z,23.67
2018-11-28T15:11:10.754Z,24.90
2018-11-28T15:13:14.325Z,24.67
2018-11-28T15:15:17.853Z,23.07
2018-11-28T15:17:21.372Z,25.07
2018-11-28T15:19:24.996Z,24.27
2018-11-28T15:21:28.590Z,24.80
2018-11-28T15:23:32.785Z,24.20
2018-11-28T15:25:36.396Z,24.27
2018-11-28T15:27:39.936Z,24.60
2018-11-28T15:29:43.473Z,24.93
2018-11-28T15:31:47.048Z,28.23
2018-11-28T15:33:50.726Z,29.10
2018-11-28T15:36:00.866Z,29.60
2018-11-28T15:38:04.469Z,28.10
2018-11-28T15:40:09.005Z,26.70
2018-11-28T15:42:12.530Z,25.50
2018-11-28T15:44:16.037Z,26.30
2018-11-28T15:46:19.795Z,25.27
2018-11-28T15:48:23.341Z,25.93
2018-11-28T15:50:26.877Z,27.47
2018-11-28T15:52:30.549Z,23.23
2018-11-28T15:54:34.063Z,23.97
2018-11-28T15:56:37.699Z,22.90
2018-11-28T15:58:41.223Z,22.07
2018-11-28T16:00:44.874Z,23.83
2018-11-28T16:02:48.658Z,34.63
2018-11-28T16:04:52.244Z,40.47
2018-11-28T16:06:55.814Z,26.37
2018-11-28T16:08:59.373Z,23.27
2018-11-28T16:11:06.091Z,20.57
2018-11-28T16:13:09.918Z,20.07
2018-11-28T16:15:16.016Z,22.37
2018-11-28T16:17:20.421Z,20.43
2018-11-28T16:19:24.009Z,21.33
2018-11-28T16:21:27.536Z,19.87
2018-11-28T16:23:31.098Z,21.27
2018-11-28T16:25:34.707Z,21.23
2018-11-28T16:27:41.660Z,21.27
2018-11-28T16:29:42.506Z,21.33
2018-11-28T16:31:46.130Z,20.77
2018-11-28T16:33:49.826Z,20.43
2018-11-28T16:35:53.493Z,20.87
2018-11-28T16:37:56.980Z,21.07
2018-11-28T16:40:00.606Z,21.47
2018-11-28T16:42:04.164Z,21.77
2018-11-28T16:44:07.754Z,23.43
2018-11-28T16:46:11.421Z,24.20
2018-11-28T16:48:14.935Z,24.07
2018-11-28T16:50:18.859Z,22.30
2018-11-28T16:52:22.565Z,22.33
2018-11-28T16:54:26.088Z,23.93
2018-11-28T16:56:29.604Z,21.47
2018-11-28T16:58:33.315Z,22.30
2018-11-28T17:00:39.086Z,23.23
2018-11-28T17:02:42.829Z,24.10
2018-11-28T17:04:46.340Z,21.60
2018-11-28T17:06:49.857Z,23.50
2018-11-28T17:08:53.400Z,26.47
2018-11-28T17:10:56.905Z,23.70
2018-11-28T17:13:00.473Z,23.83
2018-11-28T17:15:04.126Z,24.03
2018-11-28T17:17:07.715Z,21.93
2018-11-28T17:19:11.438Z,21.87
2018-11-28T17:21:14.990Z,22.73
2018-11-28T17:23:18.644Z,22.77
2018-11-28T17:25:25.294Z,22.60
2018-11-28T17:27:28.870Z,23.03
2018-11-28T17:29:32.420Z,22.90
2018-11-28T17:31:36.061Z,24.63
2018-11-28T17:33:39.635Z,22.87
2018-11-28T17:35:43.181Z,23.33
2018-11-28T17:37:46.763Z,23.73
2018-11-28T17:39:50.335Z,19.73
2018-11-28T17:41:53.943Z,23.73
2018-11-28T17:43:57.656Z,21.67
2018-11-28T17:46:01.184Z,27.03
2018-11-28T17:48:05.443Z,26.33
2018-11-28T17:50:11.124Z,28.27
2018-11-28T17:52:15.090Z,29.47
2018-11-28T17:54:18.706Z,27.20
2018-11-28T17:56:22.226Z,33.37
2018-11-28T17:58:25.970Z,32.80
2018-11-28T18:00:29.703Z,27.90
2018-11-28T18:02:33.289Z,28.30
2018-11-28T18:04:36.895Z,28.90
2018-11-28T18:06:40.511Z,27.70
2018-11-28T18:08:44.339Z,24.70
2018-11-28T18:10:47.950Z,27.37
2018-11-28T18:13:28.602Z,24.40
2018-11-28T18:15:32.236Z,24.20
2018-11-28T18:17:35.851Z,23.73
2018-11-28T18:19:39.604Z,27.47
2018-11-28T18:21:43.145Z,24.27
2018-11-28T18:23:46.766Z,23.93
2018-11-28T18:25:50.466Z,23.53
2018-11-28T18:27:54.173Z,24.90
2018-11-28T18:29:57.814Z,23.60
2018-11-28T18:32:01.348Z,23.10
2018-11-28T18:34:05.027Z,23.97
2018-11-28T18:36:10.993Z,22.90
2018-11-28T18:38:14.518Z,24.40
2018-11-28T18:40:18.193Z,23.57
2018-11-28T18:42:21.767Z,23.33
2018-11-28T18:44:25.272Z,23.80
2018-11-28T18:46:28.926Z,24.03
2018-11-28T18:48:32.548Z,24.60
2018-11-28T18:50:36.135Z,23.80
2018-11-28T18:52:39.821Z,23.53
2018-11-28T18:54:43.473Z,22.73
2018-11-28T18:56:47.061Z,22.37
2018-11-28T18:58:50.725Z,23.90
2018-11-28T19:00:54.352Z,22.93
2018-11-28T19:02:57.917Z,24.67
2018-11-28T19:05:01.523Z,22.57
2018-11-28T19:07:05.447Z,24.40
2018-11-28T19:09:14.136Z,23.73
2018-11-28T19:11:17.670Z,22.90
2018-11-28T19:13:21.216Z,24.97
2018-11-28T19:15:26.117Z,24.07
2018-11-28T19:17:29.765Z,24.23
2018-11-28T19:19:33.468Z,23.10
2018-11-28T19:21:37.021Z,24.27
2018-11-28T19:23:40.764Z,23.50
2018-11-28T19:25:49.730Z,23.27
2018-11-28T19:27:48.105Z,23.47
2018-11-28T19:29:51.690Z,22.37
2018-11-28T19:31:55.356Z,23.83
2018-11-28T19:33:58.984Z,24.53
2018-11-28T19:36:02.661Z,23.90
2018-11-28T19:38:09.292Z,23.00
2018-11-28T19:40:15.232Z,22.57
2018-11-28T19:42:18.951Z,23.07
2018-11-28T19:44:22.579Z,22.57
2018-11-28T19:46:26.191Z,24.43
2018-11-28T19:48:29.784Z,23.07
2018-11-28T19:50:34.522Z,24.43
2018-11-28T19:52:38.363Z,24.60
2018-11-28T19:54:42.321Z,26.03
2018-11-28T19:56:45.903Z,26.53
2018-11-28T19:58:49.565Z,27.63
2018-11-28T20:00:53.149Z,66.73
2018-11-28T20:02:56.726Z,30.33
2018-11-28T20:05:00.474Z,30.40
2018-11-28T20:07:04.082Z,35.40
2018-11-28T20:09:14.951Z,28.70
2018-11-28T20:11:18.491Z,31.33
2018-11-28T20:13:22.245Z,36.70
2018-11-28T20:15:27.029Z,37.57
2018-11-28T20:17:30.698Z,30.60
2018-11-28T20:19:34.332Z,25.53
2018-11-28T20:21:38.073Z,25.57
2018-11-28T20:23:41.573Z,28.20
2018-11-28T20:25:45.408Z,24.90
2018-11-28T20:27:51.497Z,23.40
2018-11-28T20:29:55.079Z,24.63
2018-11-28T20:31:58.683Z,25.03
2018-11-28T20:34:02.276Z,25.53
2018-11-28T20:36:06.346Z,26.17
2018-11-28T20:38:18.011Z,25.13
2018-11-28T20:40:21.562Z,24.07
2018-11-28T20:42:25.191Z,24.47
2018-11-28T20:44:28.843Z,27.00
2018-11-28T20:46:32.429Z,25.73
2018-11-28T20:48:36.128Z,25.87
2018-11-28T20:50:39.687Z,25.27
2018-11-28T20:52:45.267Z,25.23
2018-11-28T20:54:49.143Z,24.80
2018-11-28T20:56:52.923Z,27.57
2018-11-28T20:58:56.567Z,26.53
2018-11-28T21:01:00.169Z,28.10
2018-11-28T21:03:03.693Z,26.00
2018-11-28T21:05:07.241Z,24.87
2018-11-28T21:07:10.816Z,24.83
2018-11-28T21:09:14.343Z,23.33
2018-11-28T21:11:17.874Z,25.10
2018-11-28T21:13:21.425Z,24.63
2018-11-28T21:15:25.006Z,26.10
2018-11-28T21:17:28.538Z,24.97
2018-11-28T21:19:32.168Z,25.17
2018-11-28T21:21:35.734Z,26.97
2018-11-28T21:23:39.226Z,25.43
2018-11-28T21:25:42.774Z,25.23
2018-11-28T21:27:46.544Z,25.77
2018-11-28T21:29:50.198Z,24.80
2018-11-28T21:31:53.715Z,24.60
2018-11-28T21:33:57.331Z,24.23
2018-11-28T21:36:01.081Z,25.63
2018-11-28T21:38:04.727Z,25.43
2018-11-28T21:40:09.133Z,23.87
2018-11-28T21:42:12.849Z,24.10
2018-11-28T21:44:17.586Z,25.87
2018-11-28T21:46:21.156Z,25.80
2018-11-28T21:48:24.718Z,27.00
2018-11-28T21:50:28.439Z,26.97
2018-11-28T21:52:31.986Z,25.53
2018-11-28T21:54:35.666Z,25.90
2018-11-28T21:56:41.162Z,25.33
2018-11-28T21:58:44.693Z,23.77
2018-11-28T22:00:48.300Z,25.83
2018-11-28T22:02:51.965Z,27.40
2018-11-28T22:04:55.513Z,24.83
2018-11-28T22:06:59.024Z,25.13
2018-11-28T22:09:02.694Z,24.47
2018-11-28T22:11:06.498Z,25.60
2018-11-28T22:13:10.023Z,25.70
2018-11-28T22:15:14.555Z,25.50
2018-11-28T22:17:18.307Z,27.20
2018-11-28T22:19:21.966Z,25.73
2018-11-28T22:21:25.525Z,25.83
2018-11-28T22:23:29.034Z,25.47
2018-11-28T22:25:36.073Z,27.27
2018-11-28T22:27:39.604Z,26.53
2018-11-28T22:29:43.162Z,26.37
2018-11-28T22:31:46.879Z,28.07
2018-11-28T22:33:50.468Z,26.20
2018-11-28T22:35:54.090Z,26.03
2018-11-28T22:37:57.646Z,26.90
2018-11-28T22:40:01.352Z,25.83
2018-11-28T22:42:04.970Z,25.87
2018-11-28T22:44:08.538Z,26.33
2018-11-28T22:46:12.211Z,25.57
2018-11-28T22:48:16.086Z,25.30
2018-11-28T22:50:19.612Z,25.30
2018-11-28T22:52:23.237Z,24.53
2018-11-28T22:54:26.795Z,24.37
2018-11-28T22:56:30.330Z,24.80
2018-11-28T22:58:33.958Z,24.63
2018-11-28T23:00:42.750Z,24.40
2018-11-28T23:02:58.218Z,22.97
2018-11-28T23:05:02.051Z,22.90
2018-11-28T23:07:05.613Z,24.60
2018-11-28T23:09:09.129Z,26.90
2018-11-28T23:11:12.795Z,25.73
2018-11-28T23:13:19.699Z,24.53
2018-11-28T23:15:23.267Z,31.27
2018-11-28T23:17:26.966Z,34.20
2018-11-28T23:19:30.562Z,31.07
2018-11-28T23:21:34.189Z,27.77
2018-11-28T23:23:38.026Z,26.90
2018-11-28T23:25:41.571Z,32.67
2018-11-28T23:27:45.171Z,31.87
2018-11-28T23:29:48.736Z,36.47
2018-11-28T23:31:52.293Z,33.80
2018-11-28T23:33:55.807Z,28.10
2018-11-28T23:35:59.312Z,26.00
2018-11-28T23:38:02.868Z,25.87
2018-11-28T23:40:26.055Z,24.40
2018-11-28T23:42:29.719Z,24.70
2018-11-28T23:44:33.233Z,25.23
2018-11-28T23:46:36.733Z,26.27
2018-11-28T23:48:40.252Z,26.00
2018-11-28T23:50:43.884Z,24.80
2018-11-28T23:52:47.959Z,27.17
2018-11-28T23:54:51.602Z,27.27
2018-11-28T23:56:55.103Z,27.53
2018-11-28T23:58:58.925Z,26.30
